createdAt,value
2018-05-02T00:00:19.540Z,11.70
2018-05-02T00:02:47.672Z,11.70
2018-05-02T00:05:16.675Z,11.80
2018-05-02T00:07:45.559Z,11.70
2018-05-02T00:10:13.690Z,11.70
2018-05-02T00:12:41.917Z,11.60
2018-05-02T00:15:10.917Z,11.50
2018-05-02T00:17:39.090Z,11.50
2018-05-02T00:20:07.257Z,11.50
2018-05-02T00:22:36.339Z,11.50
2018-05-02T00:25:05.259Z,11.50
2018-05-02T00:27:33.407Z,11.50
2018-05-02T00:30:02.331Z,11.40
2018-05-02T00:32:30.463Z,11.40
2018-05-02T00:34:59.406Z,11.40
2018-05-02T00:37:27.533Z,11.30
2018-05-02T00:39:56.429Z,11.30
2018-05-02T00:42:24.558Z,11.30
2018-05-02T00:44:52.734Z,11.30
2018-05-02T00:47:20.864Z,11.30
2018-05-02T00:49:49.107Z,11.30
2018-05-02T00:52:18.139Z,11.30
2018-05-02T00:54:46.265Z,11.30
2018-05-02T00:57:15.162Z,11.30
2018-05-02T00:59:44.060Z,11.30
2018-05-02T01:02:12.190Z,11.30
2018-05-02T01:04:40.315Z,11.30
2018-05-02T01:07:08.434Z,11.30
2018-05-02T01:09:36.633Z,11.30
2018-05-02T01:12:05.528Z,11.40
2018-05-02T01:14:34.430Z,11.40
2018-05-02T01:17:03.313Z,11.40
2018-05-02T01:19:31.467Z,11.30
2018-05-02T01:22:00.372Z,11.40
2018-05-02T01:24:29.258Z,11.30
2018-05-02T01:26:58.247Z,11.30
2018-05-02T01:29:27.154Z,11.30
2018-05-02T01:31:55.323Z,11.20
2018-05-02T01:34:23.433Z,11.30
2018-05-02T01:36:51.563Z,11.10
2018-05-02T01:39:19.672Z,11.10
2018-05-02T01:41:47.803Z,11.10
2018-05-02T01:44:15.960Z,11.10
2018-05-02T01:46:44.850Z,11.00
2018-05-02T01:49:23.740Z,11.10
2018-05-02T01:51:51.939Z,11.10
2018-05-02T01:54:20.826Z,11.10
2018-05-02T01:56:49.732Z,11.20
2018-05-02T01:59:18.628Z,11.20
2018-05-02T02:01:46.758Z,11.10
2018-05-02T02:04:14.919Z,11.20
2018-05-02T02:06:43.039Z,11.20
2018-05-02T02:09:11.164Z,11.20
2018-05-02T02:11:39.286Z,11.20
2018-05-02T02:14:07.416Z,11.20
2018-05-02T02:16:35.625Z,11.20
2018-05-02T02:19:03.791Z,11.20
2018-05-02T02:21:32.683Z,11.30
2018-05-02T02:24:01.577Z,11.20
2018-05-02T02:26:30.471Z,11.20
2018-05-02T02:28:58.651Z,11.20
2018-05-02T02:31:27.541Z,11.20
2018-05-02T02:33:55.688Z,11.20
2018-05-02T02:36:23.888Z,11.20
2018-05-02T02:38:51.990Z,11.20
2018-05-02T02:41:20.114Z,11.20
2018-05-02T02:43:48.233Z,11.20
2018-05-02T02:46:16.451Z,11.20
2018-05-02T02:48:45.339Z,11.30
2018-05-02T02:51:14.249Z,11.30
2018-05-02T02:53:42.367Z,11.20
2018-05-02T02:56:10.495Z,11.30
2018-05-02T02:58:38.611Z,11.30
2018-05-02T03:01:06.740Z,11.20
2018-05-02T03:03:34.878Z,11.20
2018-05-02T03:06:03.779Z,11.10
2018-05-02T03:08:31.906Z,11.10
2018-05-02T03:11:00.020Z,11.00
2018-05-02T03:13:28.899Z,11.00
2018-05-02T03:15:57.792Z,11.00
2018-05-02T03:18:26.688Z,11.00
2018-05-02T03:20:55.664Z,10.90
2018-05-02T03:23:24.556Z,11.00
2018-05-02T03:25:52.694Z,10.90
2018-05-02T03:28:20.902Z,11.00
2018-05-02T03:30:49.788Z,11.00
2018-05-02T03:33:18.687Z,11.00
2018-05-02T03:35:47.672Z,10.90
2018-05-02T03:38:16.572Z,10.90
2018-05-02T03:40:45.471Z,10.80
2018-05-02T03:43:13.599Z,10.80
2018-05-02T03:45:41.728Z,10.80
2018-05-02T03:48:09.855Z,10.80
2018-05-02T03:50:37.980Z,10.80
2018-05-02T03:53:06.145Z,10.80
2018-05-02T03:55:34.244Z,10.80
2018-05-02T03:58:02.462Z,10.70
2018-05-02T04:00:43.279Z,10.70
2018-05-02T04:03:23.249Z,10.70
2018-05-02T04:06:04.111Z,10.70
2018-05-02T04:08:32.319Z,10.80
2018-05-02T04:11:00.374Z,10.70
2018-05-02T04:13:29.295Z,10.80
2018-05-02T04:15:57.416Z,10.80
2018-05-02T04:18:25.622Z,10.80
2018-05-02T04:20:54.515Z,10.80
2018-05-02T04:23:23.411Z,10.80
2018-05-02T04:25:51.528Z,10.70
2018-05-02T04:28:19.651Z,10.80
2018-05-02T04:30:48.550Z,10.90
2018-05-02T04:33:16.684Z,10.80
2018-05-02T04:35:44.887Z,10.90
2018-05-02T04:38:13.023Z,11.00
2018-05-02T04:40:41.147Z,11.00
2018-05-02T04:43:09.315Z,11.00
2018-05-02T04:45:38.271Z,11.00
2018-05-02T04:48:07.284Z,11.10
2018-05-02T04:50:36.173Z,11.10
2018-05-02T04:53:05.147Z,11.10
2018-05-02T04:55:34.055Z,11.10
2018-05-02T04:58:02.311Z,11.10
2018-05-02T05:00:30.417Z,11.20
2018-05-02T05:02:58.551Z,11.20
2018-05-02T05:05:27.458Z,11.30
2018-05-02T05:07:56.358Z,11.30
2018-05-02T05:10:24.485Z,11.30
2018-05-02T05:12:52.627Z,11.40
2018-05-02T05:15:20.738Z,11.40
2018-05-02T05:17:49.631Z,11.50
2018-05-02T05:20:18.638Z,11.70
2018-05-02T05:22:47.546Z,11.80
2018-05-02T05:25:15.710Z,11.80
2018-05-02T05:27:43.856Z,11.90
2018-05-02T05:30:12.784Z,12.00
2018-05-02T05:32:40.912Z,11.90
2018-05-02T05:35:09.810Z,12.00
2018-05-02T05:37:38.819Z,12.00
2018-05-02T05:40:07.714Z,11.90
2018-05-02T05:42:36.598Z,11.90
2018-05-02T05:45:05.495Z,11.80
2018-05-02T05:47:33.640Z,11.80
2018-05-02T05:50:02.541Z,11.90
2018-05-02T05:52:30.698Z,11.90
2018-05-02T05:54:58.836Z,11.80
2018-05-02T05:57:27.079Z,11.80
2018-05-02T05:59:55.225Z,11.80
2018-05-02T06:02:24.208Z,11.80
2018-05-02T06:04:53.202Z,11.90
2018-05-02T06:07:22.200Z,11.90
2018-05-02T06:09:51.139Z,12.00
2018-05-02T06:12:19.252Z,12.00
2018-05-02T06:14:48.152Z,12.10
2018-05-02T06:17:17.039Z,12.10
2018-05-02T06:19:45.976Z,12.20
2018-05-02T06:22:14.109Z,12.20
2018-05-02T06:24:43.023Z,12.40
2018-05-02T06:27:11.155Z,12.40
2018-05-02T06:29:40.068Z,12.60
2018-05-02T06:32:09.038Z,12.60
2018-05-02T06:34:37.961Z,12.70
2018-05-02T06:37:06.110Z,12.70
2018-05-02T06:39:35.002Z,13.00
2018-05-02T06:42:03.174Z,13.00
2018-05-02T06:44:31.325Z,13.10
2018-05-02T06:46:59.524Z,13.10
2018-05-02T06:49:27.664Z,13.30
2018-05-02T06:51:55.788Z,13.50
2018-05-02T06:54:23.922Z,13.70
2018-05-02T06:56:53.200Z,14.00
2018-05-02T06:59:21.364Z,13.90
2018-05-02T07:01:49.463Z,14.00
2018-05-02T07:04:18.380Z,13.80
2018-05-02T07:06:46.508Z,13.80
2018-05-02T07:09:14.742Z,13.70
2018-05-02T07:11:42.851Z,13.60
2018-05-02T07:14:11.756Z,13.70
2018-05-02T07:16:40.662Z,13.70
2018-05-02T07:19:09.545Z,13.80
2018-05-02T07:21:38.450Z,13.90
2018-05-02T07:24:07.428Z,14.10
2018-05-02T07:26:35.495Z,14.00
2018-05-02T07:29:04.434Z,14.40
2018-05-02T07:31:32.558Z,14.30
2018-05-02T07:34:01.564Z,14.40
2018-05-02T07:36:29.684Z,14.40
2018-05-02T07:38:57.915Z,14.40
2018-05-02T07:41:26.095Z,14.40
2018-05-02T07:43:54.222Z,14.40
2018-05-02T07:46:22.510Z,14.60
2018-05-02T07:48:50.675Z,14.60
2018-05-02T07:51:18.798Z,14.70
2018-05-02T07:53:46.927Z,14.70
2018-05-02T07:56:15.819Z,14.80
2018-05-02T07:58:44.800Z,14.80
2018-05-02T08:01:13.804Z,14.80
2018-05-02T08:03:42.708Z,14.90
2018-05-02T08:06:10.893Z,14.90
2018-05-02T08:08:39.024Z,14.90
2018-05-02T08:11:08.080Z,14.90
2018-05-02T08:13:36.947Z,14.90
2018-05-02T08:16:05.056Z,14.90
2018-05-02T08:18:33.195Z,14.90
2018-05-02T08:21:01.436Z,15.00
2018-05-02T08:23:29.625Z,14.90
2018-05-02T08:25:57.775Z,14.90
2018-05-02T08:28:26.838Z,14.70
2018-05-02T08:30:55.763Z,14.80
2018-05-02T08:33:23.907Z,14.70
2018-05-02T08:35:52.099Z,14.80
2018-05-02T08:38:21.111Z,15.10
2018-05-02T08:40:49.271Z,15.10
2018-05-02T08:43:17.461Z,15.30
2018-05-02T08:45:45.613Z,15.50
2018-05-02T08:48:14.601Z,15.90
2018-05-02T08:50:43.518Z,16.00
2018-05-02T08:53:11.623Z,16.00
2018-05-02T08:55:39.807Z,16.10
2018-05-02T08:58:08.005Z,16.20
2018-05-02T09:00:37.108Z,16.10
2018-05-02T09:03:05.244Z,16.10
2018-05-02T09:05:33.371Z,16.10
2018-05-02T09:08:01.506Z,16.10
2018-05-02T09:10:30.411Z,16.00
2018-05-02T09:12:59.399Z,15.90
2018-05-02T09:15:27.630Z,15.90
2018-05-02T09:17:55.726Z,15.90
2018-05-02T09:20:24.967Z,16.20
2018-05-02T09:22:53.160Z,16.20
2018-05-02T09:25:21.287Z,16.50
2018-05-02T09:27:49.422Z,16.70
2018-05-02T09:30:17.648Z,16.90
2018-05-02T09:32:45.836Z,17.10
2018-05-02T09:35:13.975Z,17.30
2018-05-02T09:37:42.145Z,17.40
2018-05-02T09:40:11.132Z,17.40
2018-05-02T09:42:40.134Z,17.40
2018-05-02T09:45:09.051Z,17.40
2018-05-02T09:47:37.195Z,17.40
2018-05-02T09:50:06.313Z,17.30
2018-05-02T09:52:34.431Z,17.30
2018-05-02T09:55:02.547Z,17.20
2018-05-02T09:57:30.796Z,17.20
2018-05-02T09:59:59.680Z,17.60
2018-05-02T10:02:28.687Z,17.70
2018-05-02T10:04:57.591Z,17.80
2018-05-02T10:07:25.729Z,17.80
2018-05-02T10:09:54.651Z,18.10
2018-05-02T10:12:23.579Z,18.20
2018-05-02T10:14:51.651Z,18.20
2018-05-02T10:17:19.792Z,18.40
2018-05-02T10:19:47.917Z,18.60
2018-05-02T10:22:16.112Z,18.60
2018-05-02T10:24:44.279Z,18.60
2018-05-02T10:27:13.281Z,18.50
2018-05-02T10:29:41.457Z,18.50
2018-05-02T10:32:09.621Z,18.50
2018-05-02T10:34:37.795Z,18.50
2018-05-02T10:37:05.960Z,18.50
2018-05-02T10:39:34.841Z,18.30
2018-05-02T10:42:03.837Z,18.20
2018-05-02T10:44:32.740Z,18.00
2018-05-02T10:47:01.727Z,17.90
2018-05-02T10:49:30.672Z,17.80
2018-05-02T10:51:58.814Z,17.80
2018-05-02T10:54:26.944Z,17.80
2018-05-02T10:56:55.859Z,17.60
2018-05-02T10:59:24.724Z,17.50
2018-05-02T11:01:53.615Z,17.50
2018-05-02T11:04:22.527Z,17.50
2018-05-02T11:06:50.669Z,17.50
2018-05-02T11:09:18.776Z,17.50
2018-05-02T11:11:46.919Z,17.50
2018-05-02T11:14:15.813Z,17.50
2018-05-02T11:16:44.719Z,17.60
2018-05-02T11:19:12.963Z,17.50
2018-05-02T11:21:41.178Z,17.60
2018-05-02T11:24:09.309Z,17.70
2018-05-02T11:26:37.433Z,17.80
2018-05-02T11:29:05.676Z,17.80
2018-05-02T11:31:34.599Z,18.00
2018-05-02T11:34:02.731Z,18.00
2018-05-02T11:36:31.651Z,18.30
2018-05-02T11:38:59.771Z,18.30
2018-05-02T11:41:27.911Z,18.40
2018-05-02T11:43:56.039Z,18.50
2018-05-02T11:46:24.956Z,18.60
2018-05-02T11:48:53.084Z,18.50
2018-05-02T11:51:21.982Z,18.70
2018-05-02T11:53:50.922Z,18.70
2018-05-02T11:56:19.105Z,18.70
2018-05-02T11:58:47.208Z,18.80
2018-05-02T12:01:15.342Z,18.80
2018-05-02T12:03:43.463Z,18.90
2018-05-02T12:06:12.472Z,18.80
2018-05-02T12:08:40.620Z,18.80
2018-05-02T12:11:09.524Z,19.00
2018-05-02T12:13:38.448Z,19.10
2018-05-02T12:16:06.564Z,19.10
2018-05-02T12:18:34.726Z,19.30
2018-05-02T12:21:02.963Z,19.60
2018-05-02T12:23:31.200Z,19.70
2018-05-02T12:26:00.142Z,20.00
2018-05-02T12:28:28.274Z,19.90
2018-05-02T12:30:56.400Z,20.10
2018-05-02T12:33:24.582Z,20.30
2018-05-02T12:35:53.514Z,20.30
2018-05-02T12:38:21.665Z,20.30
2018-05-02T12:40:50.638Z,20.40
2018-05-02T12:43:18.839Z,20.40
2018-05-02T12:45:47.739Z,20.40
2018-05-02T12:48:15.874Z,20.40
2018-05-02T12:50:43.992Z,20.60
2018-05-02T12:53:12.141Z,20.60
2018-05-02T12:55:40.290Z,20.70
2018-05-02T12:58:08.463Z,20.60
2018-05-02T13:00:36.803Z,20.60
2018-05-02T13:03:04.935Z,20.50
2018-05-02T13:05:33.828Z,20.20
2018-05-02T13:08:02.013Z,20.20
2018-05-02T13:10:30.875Z,20.10
2018-05-02T13:12:59.795Z,20.00
2018-05-02T13:15:27.943Z,20.00
2018-05-02T13:17:56.132Z,20.00
2018-05-02T13:20:24.295Z,19.80
2018-05-02T13:22:53.177Z,19.60
2018-05-02T13:25:22.088Z,19.50
2018-05-02T13:27:50.224Z,19.50
2018-05-02T13:30:19.128Z,19.40
2018-05-02T13:32:48.112Z,19.20
2018-05-02T13:35:17.117Z,19.00
2018-05-02T13:37:46.025Z,18.90
2018-05-02T13:40:14.158Z,18.90
2018-05-02T13:42:42.313Z,19.00
2018-05-02T13:45:10.439Z,19.00
2018-05-02T13:47:38.619Z,19.00
2018-05-02T13:50:06.895Z,19.00
2018-05-02T13:52:35.024Z,18.90
2018-05-02T13:55:03.948Z,18.80
2018-05-02T13:57:32.075Z,18.80
2018-05-02T14:00:00.228Z,18.70
2018-05-02T14:02:28.383Z,18.60
2018-05-02T14:04:56.531Z,18.50
2018-05-02T14:07:24.666Z,18.50
2018-05-02T14:09:52.808Z,18.40
2018-05-02T14:12:20.939Z,18.40
2018-05-02T14:14:49.099Z,18.40
2018-05-02T14:17:17.291Z,18.30
2018-05-02T14:19:45.433Z,18.20
2018-05-02T14:22:14.446Z,18.20
2018-05-02T14:24:43.460Z,18.10
2018-05-02T14:27:11.618Z,18.10
2018-05-02T14:29:40.703Z,18.10
2018-05-02T14:32:08.835Z,18.00
2018-05-02T14:34:36.975Z,18.20
2018-05-02T14:37:05.238Z,18.20
2018-05-02T14:39:33.371Z,18.30
2018-05-02T14:42:03.350Z,18.30
2018-05-02T14:44:31.571Z,18.30
2018-05-02T14:47:00.468Z,18.30
2018-05-02T14:49:28.613Z,18.30
2018-05-02T14:51:56.725Z,18.30
2018-05-02T14:54:24.879Z,18.30
2018-05-02T14:56:53.041Z,18.30
2018-05-02T14:59:21.218Z,18.30
2018-05-02T15:01:50.107Z,18.10
2018-05-02T15:04:19.111Z,18.10
2018-05-02T15:06:47.212Z,18.00
2018-05-02T15:09:15.343Z,18.10
2018-05-02T15:11:44.331Z,18.30
2018-05-02T15:14:13.338Z,18.30
2018-05-02T15:16:42.323Z,18.20
2018-05-02T15:19:10.482Z,18.20
2018-05-02T15:21:39.389Z,18.20
2018-05-02T15:24:08.288Z,18.00
2018-05-02T15:26:36.441Z,18.00
2018-05-02T15:29:04.646Z,18.00
2018-05-02T15:31:32.780Z,18.10
2018-05-02T15:34:01.787Z,18.30
2018-05-02T15:36:30.778Z,18.40
2018-05-02T15:38:59.667Z,18.40
2018-05-02T15:41:27.818Z,18.40
2018-05-02T15:43:56.717Z,18.50
2018-05-02T15:46:25.681Z,18.70
2018-05-02T15:48:53.815Z,18.70
2018-05-02T15:51:21.960Z,19.00
2018-05-02T15:53:50.979Z,18.80
2018-05-02T15:56:19.185Z,18.80
2018-05-02T15:58:47.431Z,18.70
2018-05-02T16:01:15.589Z,18.60
2018-05-02T16:03:43.694Z,18.50
2018-05-02T16:06:11.863Z,18.40
2018-05-02T16:08:39.997Z,18.50
2018-05-02T16:11:08.161Z,18.60
2018-05-02T16:13:37.067Z,18.80
2018-05-02T16:16:05.353Z,18.70
2018-05-02T16:18:33.476Z,18.80
2018-05-02T16:21:01.635Z,18.80
2018-05-02T16:23:29.777Z,18.80
2018-05-02T16:25:57.928Z,18.70
2018-05-02T16:28:26.100Z,18.70
2018-05-02T16:30:54.283Z,18.70
2018-05-02T16:33:22.495Z,18.70
2018-05-02T16:35:51.358Z,18.60
2018-05-02T16:38:19.508Z,18.50
2018-05-02T16:40:47.637Z,18.60
2018-05-02T16:43:15.760Z,18.60
2018-05-02T16:45:43.956Z,18.60
2018-05-02T16:48:12.097Z,18.60
2018-05-02T16:50:40.249Z,18.70
2018-05-02T16:53:09.180Z,18.70
2018-05-02T16:55:37.312Z,18.70
2018-05-02T16:58:06.237Z,18.70
2018-05-02T17:00:34.415Z,18.70
2018-05-02T17:03:02.567Z,18.40
2018-05-02T17:05:30.818Z,18.30
2018-05-02T17:07:58.974Z,18.40
2018-05-02T17:10:27.929Z,18.60
2018-05-02T17:12:56.101Z,18.60
2018-05-02T17:15:24.468Z,18.70
2018-05-02T17:17:52.594Z,18.80
2018-05-02T17:20:21.476Z,18.60
2018-05-02T17:22:50.389Z,18.40
2018-05-02T17:25:18.535Z,18.40
2018-05-02T17:27:46.674Z,18.20
2018-05-02T17:30:14.814Z,18.10
2018-05-02T17:32:42.968Z,18.00
2018-05-02T17:35:12.054Z,17.70
2018-05-02T17:37:40.215Z,17.70
2018-05-02T17:40:08.373Z,17.60
2018-05-02T17:42:36.571Z,17.50
2018-05-02T17:45:05.469Z,17.30
2018-05-02T17:47:33.638Z,17.30
2018-05-02T17:50:01.746Z,17.20
2018-05-02T17:52:29.924Z,17.10
2018-05-02T17:54:58.055Z,17.10
2018-05-02T17:57:26.266Z,17.00
2018-05-02T17:59:54.520Z,16.90
2018-05-02T18:02:22.684Z,16.90
2018-05-02T18:04:50.816Z,16.90
2018-05-02T18:07:19.135Z,16.80
2018-05-02T18:09:47.326Z,16.70
2018-05-02T18:12:15.509Z,16.50
2018-05-02T18:14:43.671Z,16.40
2018-05-02T18:17:11.795Z,16.40
2018-05-02T18:19:40.710Z,16.20
2018-05-02T18:22:08.857Z,16.10
2018-05-02T18:24:37.781Z,16.00
2018-05-02T18:27:05.952Z,16.00
2018-05-02T18:29:34.081Z,15.90
2018-05-02T18:32:02.238Z,15.90
2018-05-02T18:34:30.370Z,15.90
2018-05-02T18:36:58.512Z,15.80
2018-05-02T18:39:26.668Z,15.80
2018-05-02T18:41:54.923Z,15.70
2018-05-02T18:44:23.082Z,15.70
2018-05-02T18:46:51.272Z,15.60
2018-05-02T18:49:19.409Z,15.60
2018-05-02T18:51:47.681Z,15.50
2018-05-02T18:54:16.094Z,15.50
2018-05-02T18:56:44.276Z,15.50
2018-05-02T18:59:12.515Z,15.40
2018-05-02T19:01:40.689Z,15.40
2018-05-02T19:04:08.825Z,15.40
2018-05-02T19:06:38.305Z,15.40
2018-05-02T19:09:06.447Z,15.30
2018-05-02T19:11:34.681Z,15.30
2018-05-02T19:14:02.862Z,15.30
2018-05-02T19:16:31.761Z,15.30
2018-05-02T19:19:05.686Z,15.20
2018-05-02T19:21:33.857Z,15.30
2018-05-02T19:24:02.098Z,15.20
2018-05-02T19:26:36.475Z,15.20
2018-05-02T19:29:04.697Z,15.10
2018-05-02T19:31:39.381Z,15.10
2018-05-02T19:34:07.560Z,15.10
2018-05-02T19:36:35.736Z,15.10
2018-05-02T19:39:03.978Z,15.00
2018-05-02T19:41:38.621Z,15.00
2018-05-02T19:44:07.736Z,15.00
2018-05-02T19:46:36.468Z,15.00
2018-05-02T19:49:04.638Z,15.00
2018-05-02T19:51:38.542Z,14.90
2018-05-02T19:54:06.757Z,14.90
2018-05-02T19:56:34.963Z,14.80
2018-05-02T19:59:03.911Z,14.70
2018-05-02T20:01:37.993Z,14.70
2018-05-02T20:04:06.150Z,14.60
2018-05-02T20:06:34.334Z,14.50
2018-05-02T20:12:20.254Z,14.40
2018-05-02T20:14:48.504Z,14.30
2018-05-02T20:17:16.729Z,14.30
2018-05-02T20:19:45.062Z,14.30
2018-05-02T20:22:13.189Z,14.20
2018-05-02T20:24:41.552Z,14.30
2018-05-02T20:27:09.740Z,14.30
2018-05-02T20:29:38.006Z,14.30
2018-05-02T20:32:06.153Z,14.30
2018-05-02T20:34:34.733Z,14.20
2018-05-02T20:37:02.913Z,14.10
2018-05-02T20:39:31.105Z,14.10
2018-05-02T20:41:59.284Z,14.10
2018-05-02T20:44:28.331Z,14.10
2018-05-02T20:46:56.456Z,14.10
2018-05-02T20:49:25.534Z,14.10
2018-05-02T20:51:53.651Z,14.10
2018-05-02T20:54:21.991Z,14.10
2018-05-02T20:56:50.053Z,14.10
2018-05-02T20:59:18.255Z,14.00
2018-05-02T21:01:46.414Z,14.00
2018-05-02T21:04:15.317Z,13.90
2018-05-02T21:06:43.472Z,13.80
2018-05-02T21:09:12.397Z,13.80
2018-05-02T21:11:40.554Z,13.80
2018-05-02T21:14:09.483Z,13.80
2018-05-02T21:16:37.630Z,13.70
2018-05-02T21:19:05.781Z,13.80
2018-05-02T21:21:35.462Z,13.80
2018-05-02T21:24:05.242Z,13.70
2018-05-02T21:26:33.383Z,13.70
2018-05-02T21:29:01.520Z,13.70
2018-05-02T21:31:29.731Z,13.60
2018-05-02T21:33:57.879Z,13.60
2018-05-02T21:36:26.791Z,13.60
2018-05-02T21:38:54.947Z,13.60
2018-05-02T21:41:23.078Z,13.60
2018-05-02T21:43:51.276Z,13.60
2018-05-02T21:46:20.274Z,13.60
2018-05-02T21:48:49.152Z,13.60
2018-05-02T21:51:18.056Z,13.60
2018-05-02T21:53:46.972Z,13.60
2018-05-02T21:56:15.276Z,13.60
2018-05-02T21:58:43.393Z,13.60
2018-05-02T22:01:11.541Z,13.50
2018-05-02T22:03:40.448Z,13.40
2018-05-02T22:06:08.585Z,13.40
2018-05-02T22:08:36.785Z,13.40
2018-05-02T22:11:05.675Z,13.30
2018-05-02T22:13:34.594Z,13.20
2018-05-02T22:16:02.730Z,13.20
2018-05-02T22:18:31.652Z,13.10
2018-05-02T22:20:59.919Z,13.00
2018-05-02T22:23:28.076Z,13.00
2018-05-02T22:25:56.967Z,12.90
2018-05-02T22:28:25.119Z,12.90
2018-05-02T22:30:53.263Z,12.90
2018-05-02T22:33:21.486Z,12.90
2018-05-02T22:35:50.346Z,12.90
2018-05-02T22:38:18.535Z,13.00
2018-05-02T22:40:47.545Z,13.10
2018-05-02T22:43:16.827Z,13.10
2018-05-02T22:45:45.726Z,13.10
2018-05-02T22:48:13.874Z,13.10
2018-05-02T22:50:42.000Z,13.20
2018-05-02T22:53:10.127Z,13.20
2018-05-02T22:55:39.023Z,13.40
2018-05-02T22:58:07.898Z,13.40
2018-05-02T23:00:36.798Z,13.30
2018-05-02T23:03:05.790Z,13.40
2018-05-02T23:05:34.690Z,13.40
2018-05-02T23:08:03.567Z,13.40
2018-05-02T23:10:32.568Z,13.40
2018-05-02T23:13:01.464Z,13.40
2018-05-02T23:15:30.337Z,13.40
2018-05-02T23:17:59.223Z,13.50
2018-05-02T23:20:28.216Z,13.50
2018-05-02T23:22:57.091Z,13.40
2018-05-02T23:25:25.226Z,13.40
2018-05-02T23:27:54.149Z,13.40
2018-05-02T23:30:23.804Z,13.30
2018-05-02T23:32:51.919Z,13.30
2018-05-02T23:35:21.559Z,13.30
2018-05-02T23:37:50.459Z,13.30
2018-05-02T23:40:18.614Z,13.30
2018-05-02T23:42:47.518Z,13.30
2018-05-02T23:45:15.642Z,13.20
2018-05-02T23:47:43.767Z,13.20
2018-05-02T23:50:11.914Z,13.20
2018-05-02T23:52:40.093Z,13.10
2018-05-02T23:55:09.098Z,13.10
2018-05-02T23:57:38.014Z,13.10
